createdAt,value
2023-02-17T00:02:18.468Z,3.80
2023-02-17T00:04:45.557Z,3.58
2023-02-17T00:07:12.602Z,3.25
2023-02-17T00:09:39.650Z,4.57
2023-02-17T00:12:09.007Z,5.28
2023-02-17T00:14:36.096Z,3.15
2023-02-17T00:17:03.137Z,4.80
2023-02-17T00:19:30.201Z,3.67
2023-02-17T00:21:59.940Z,4.18
2023-02-17T00:24:29.422Z,4.13
2023-02-17T00:26:56.649Z,4.38
2023-02-17T00:29:23.731Z,5.28
2023-02-17T00:31:54.592Z,4.65
2023-02-17T00:34:23.612Z,4.70
2023-02-17T00:36:51.759Z,5.05
2023-02-17T00:39:18.791Z,3.75
2023-02-17T00:41:48.983Z,3.70
2023-02-17T00:44:19.032Z,5.13
2023-02-17T00:46:47.309Z,3.97
2023-02-17T00:49:22.057Z,6.50
2023-02-17T00:51:49.942Z,4.85
2023-02-17T00:54:20.327Z,6.97
2023-02-17T00:56:47.706Z,5.30
2023-02-17T00:59:18.817Z,4.07
2023-02-17T01:01:45.932Z,5.13
2023-02-17T01:04:15.820Z,6.68
2023-02-17T01:06:42.972Z,6.05
2023-02-17T01:09:14.765Z,5.93
2023-02-17T01:14:12.012Z,5.88
2023-02-17T01:16:41.036Z,4.80
2023-02-17T01:19:13.354Z,6.30
2023-02-17T01:21:43.541Z,7.60
2023-02-17T01:24:12.308Z,5.25
2023-02-17T01:26:40.848Z,5.47
2023-02-17T01:29:08.715Z,6.10
2023-02-17T01:31:36.976Z,4.90
2023-02-17T01:34:05.437Z,6.60
2023-02-17T01:36:33.464Z,4.97
2023-02-17T01:39:01.086Z,6.65
2023-02-17T01:41:29.316Z,6.95
2023-02-17T01:44:05.486Z,3.85
2023-02-17T01:46:34.476Z,4.20
2023-02-17T01:49:14.884Z,4.53
2023-02-17T01:51:42.662Z,4.97
2023-02-17T01:54:14.605Z,2.60
2023-02-17T01:56:45.449Z,5.30
2023-02-17T01:59:21.111Z,4.13
2023-02-17T02:01:53.164Z,3.67
2023-02-17T02:04:23.873Z,5.70
2023-02-17T02:06:52.204Z,9.52
2023-02-17T02:09:46.689Z,4.90
2023-02-17T02:12:40.864Z,5.13
2023-02-17T02:15:12.810Z,7.82
2023-02-17T02:20:49.125Z,3.13
2023-02-17T02:23:43.907Z,4.57
2023-02-17T02:26:18.866Z,5.50
2023-02-17T02:29:19.875Z,6.18
2023-02-17T02:31:56.001Z,3.42
2023-02-17T02:34:46.246Z,5.30
2023-02-17T02:37:28.373Z,6.38
2023-02-17T02:39:57.326Z,5.03
2023-02-17T02:42:25.954Z,5.70
2023-02-17T02:44:53.775Z,6.40
2023-02-17T02:47:44.343Z,4.78
2023-02-17T02:50:42.518Z,6.47
2023-02-17T02:53:51.209Z,4.45
2023-02-17T02:56:27.304Z,5.90
2023-02-17T02:59:06.514Z,6.30
2023-02-17T03:02:16.619Z,7.68
2023-02-17T03:05:16.847Z,8.38
2023-02-17T03:08:00.188Z,6.13
2023-02-17T03:10:30.097Z,6.60
2023-02-17T03:12:58.076Z,7.75
2023-02-17T03:15:34.932Z,8.05
2023-02-17T03:18:03.750Z,9.75
2023-02-17T03:20:44.259Z,10.13
2023-02-17T03:23:11.799Z,13.10
2023-02-17T03:25:39.434Z,12.77
2023-02-17T03:28:08.924Z,10.82
2023-02-17T03:30:36.068Z,7.43
2023-02-17T03:33:03.320Z,11.82
2023-02-17T03:35:34.706Z,9.88
2023-02-17T03:38:02.053Z,8.85
2023-02-17T03:40:32.606Z,9.73
2023-02-17T03:42:59.839Z,9.30
2023-02-17T03:45:30.265Z,12.68
2023-02-17T03:47:57.409Z,10.57
2023-02-17T03:50:24.735Z,13.23
2023-02-17T03:52:51.847Z,11.00
2023-02-17T03:55:18.953Z,8.85
2023-02-17T03:57:45.973Z,14.10
2023-02-17T04:00:16.071Z,9.05
2023-02-17T04:02:45.265Z,9.35
2023-02-17T04:05:15.875Z,9.20
2023-02-17T04:07:45.624Z,8.93
2023-02-17T04:10:15.307Z,8.23
2023-02-17T04:12:42.470Z,12.02
2023-02-17T04:15:12.240Z,7.88
2023-02-17T04:17:39.434Z,10.25
2023-02-17T04:20:08.290Z,10.95
2023-02-17T04:22:38.386Z,7.90
2023-02-17T04:25:05.643Z,8.55
2023-02-17T04:27:35.243Z,7.47
2023-02-17T04:30:07.130Z,8.10
2023-02-17T04:32:34.206Z,6.80
2023-02-17T04:35:01.132Z,7.78
2023-02-17T04:37:28.207Z,6.13
2023-02-17T04:39:55.157Z,6.20
2023-02-17T04:42:22.142Z,4.82
2023-02-17T04:44:49.147Z,10.88
2023-02-17T04:47:16.307Z,9.70
2023-02-17T04:49:43.312Z,5.22
2023-02-17T04:52:10.419Z,7.47
2023-02-17T04:54:37.730Z,8.93
2023-02-17T04:57:04.713Z,6.57
2023-02-17T04:59:31.713Z,7.43
2023-02-17T05:01:58.734Z,8.55
2023-02-17T05:04:25.886Z,7.95
2023-02-17T05:06:53.021Z,6.88
2023-02-17T05:09:22.313Z,8.45
2023-02-17T05:11:49.318Z,6.43
2023-02-17T05:14:16.309Z,9.70
2023-02-17T05:16:43.362Z,7.47
2023-02-17T05:19:10.699Z,8.80
2023-02-17T05:21:37.677Z,7.85
2023-02-17T05:24:05.438Z,7.45
2023-02-17T05:26:32.809Z,9.07
2023-02-17T05:29:00.020Z,11.38
2023-02-17T05:31:27.054Z,9.75
2023-02-17T05:33:54.952Z,7.20
2023-02-17T05:36:22.021Z,7.30
2023-02-17T05:38:50.038Z,6.93
2023-02-17T05:41:19.228Z,8.15
2023-02-17T05:43:47.478Z,8.95
2023-02-17T05:46:15.044Z,5.63
2023-02-17T05:48:42.224Z,7.75
2023-02-17T05:51:09.461Z,7.95
2023-02-17T05:53:36.604Z,8.32
2023-02-17T05:56:04.068Z,9.45
2023-02-17T05:58:31.366Z,5.63
2023-02-17T06:00:58.374Z,10.88
2023-02-17T06:03:25.399Z,7.30
2023-02-17T06:05:52.467Z,7.72
2023-02-17T06:08:19.433Z,9.85
2023-02-17T06:10:46.452Z,5.57
2023-02-17T06:13:16.348Z,8.88
2023-02-17T06:15:50.388Z,7.50
2023-02-17T06:18:17.923Z,9.55
2023-02-17T06:20:45.296Z,10.15
2023-02-17T06:23:12.259Z,6.70
2023-02-17T06:25:39.410Z,6.80
2023-02-17T06:28:06.544Z,10.20
2023-02-17T06:30:33.775Z,9.32
2023-02-17T06:33:00.937Z,11.68
2023-02-17T06:35:31.059Z,16.33
2023-02-17T06:37:58.129Z,8.43
2023-02-17T06:40:26.560Z,7.18
2023-02-17T06:42:56.871Z,8.25
2023-02-17T06:45:23.935Z,7.72
2023-02-17T06:47:50.988Z,9.32
2023-02-17T06:50:18.179Z,8.73
2023-02-17T06:52:45.323Z,7.22
2023-02-17T06:55:13.348Z,12.48
2023-02-17T06:57:40.365Z,6.80
2023-02-17T07:00:08.185Z,6.85
2023-02-17T07:02:38.662Z,8.57
2023-02-17T07:05:06.902Z,8.00
2023-02-17T07:07:34.482Z,8.88
2023-02-17T07:10:01.471Z,8.05
2023-02-17T07:12:30.007Z,7.47
2023-02-17T07:14:58.685Z,7.35
2023-02-17T07:17:26.026Z,7.60
2023-02-17T07:19:53.082Z,8.63
2023-02-17T07:22:20.166Z,6.82
2023-02-17T07:24:49.533Z,8.80
2023-02-17T07:27:18.808Z,6.65
2023-02-17T07:29:45.980Z,6.30
2023-02-17T07:32:13.091Z,5.85
2023-02-17T07:34:40.112Z,6.10
2023-02-17T07:37:10.161Z,6.00
2023-02-17T07:39:37.251Z,5.65
2023-02-17T07:42:07.477Z,9.98
2023-02-17T07:44:37.766Z,7.55
2023-02-17T07:47:04.919Z,7.22
2023-02-17T07:49:32.170Z,8.18
2023-02-17T07:52:19.410Z,6.03
2023-02-17T07:54:48.519Z,7.78
2023-02-17T07:57:15.838Z,6.25
2023-02-17T07:59:42.863Z,8.88
2023-02-17T08:02:12.481Z,6.30
2023-02-17T08:04:39.783Z,7.13
2023-02-17T08:07:06.949Z,6.32
2023-02-17T08:10:01.554Z,5.53
2023-02-17T08:12:50.184Z,4.38
2023-02-17T08:15:17.285Z,4.18
2023-02-17T08:17:44.578Z,7.32
2023-02-17T08:20:13.483Z,5.20
2023-02-17T08:22:40.517Z,6.90
2023-02-17T08:25:07.835Z,4.63
2023-02-17T08:27:34.898Z,9.25
2023-02-17T08:30:05.581Z,4.93
2023-02-17T08:32:37.434Z,5.82
2023-02-17T08:37:33.223Z,4.82
2023-02-17T08:40:06.168Z,3.40
2023-02-17T08:42:33.623Z,4.55
2023-02-17T08:45:02.993Z,4.15
2023-02-17T08:47:39.468Z,3.45
2023-02-17T08:50:08.555Z,5.30
2023-02-17T08:52:36.361Z,7.70
2023-02-17T08:55:04.162Z,5.53
2023-02-17T08:57:32.368Z,4.50
2023-02-17T08:59:59.490Z,6.55
2023-02-17T09:02:26.631Z,2.88
2023-02-17T09:04:53.634Z,4.10
2023-02-17T09:07:20.872Z,4.05
2023-02-17T09:09:47.918Z,2.58
2023-02-17T09:12:15.073Z,3.30
2023-02-17T09:14:42.066Z,2.88
2023-02-17T09:17:10.302Z,2.90
2023-02-17T09:19:40.885Z,2.72
2023-02-17T09:22:08.074Z,3.65
2023-02-17T09:24:38.832Z,2.42
2023-02-17T09:27:05.966Z,6.47
2023-02-17T09:29:33.096Z,5.03
2023-02-17T09:32:00.313Z,2.63
2023-02-17T09:34:27.562Z,2.38
2023-02-17T09:36:54.745Z,3.22
2023-02-17T09:39:21.925Z,3.70
2023-02-17T09:41:52.384Z,1.85
2023-02-17T09:44:42.875Z,2.92
2023-02-17T09:47:18.430Z,6.60
2023-02-17T09:50:11.261Z,3.08
2023-02-17T09:52:53.820Z,3.35
2023-02-17T09:55:29.959Z,2.72
2023-02-17T09:58:16.910Z,5.18
2023-02-17T10:01:09.003Z,1.35
2023-02-17T10:03:43.227Z,2.60
2023-02-17T10:06:41.142Z,2.63
2023-02-17T10:09:08.303Z,2.15
2023-02-17T10:11:41.160Z,1.15
2023-02-17T10:14:18.059Z,2.50
2023-02-17T10:16:53.632Z,3.75
2023-02-17T10:19:34.600Z,4.78
2023-02-17T10:22:19.652Z,2.57
2023-02-17T10:24:49.908Z,2.05
2023-02-17T10:27:42.931Z,2.60
2023-02-17T10:30:40.866Z,2.90
2023-02-17T10:33:35.481Z,1.70
2023-02-17T10:36:26.470Z,1.60
2023-02-17T10:39:00.313Z,1.83
2023-02-17T10:41:33.259Z,2.30
2023-02-17T10:44:03.056Z,2.13
2023-02-17T10:46:32.316Z,1.38
2023-02-17T10:49:00.544Z,2.42
2023-02-17T10:51:31.372Z,1.95
2023-02-17T10:54:10.969Z,2.40
2023-02-17T10:56:51.763Z,1.90
2023-02-17T10:59:28.425Z,6.13
2023-02-17T11:02:22.142Z,1.23
2023-02-17T11:04:56.098Z,9.02
2023-02-17T11:07:33.157Z,3.28
2023-02-17T11:10:03.096Z,2.63
2023-02-17T11:12:40.063Z,2.42
2023-02-17T11:15:22.037Z,1.75
2023-02-17T11:20:16.867Z,1.85
2023-02-17T11:22:59.327Z,1.73
2023-02-17T11:25:29.681Z,2.38
2023-02-17T11:28:09.092Z,2.92
2023-02-17T11:30:38.107Z,1.45
2023-02-17T11:33:16.039Z,2.40
2023-02-17T11:35:56.710Z,4.32
2023-02-17T11:38:32.292Z,2.42
2023-02-17T11:41:08.005Z,3.73
2023-02-17T11:43:36.264Z,3.00
2023-02-17T11:46:26.869Z,1.48
2023-02-17T11:49:25.472Z,2.20
2023-02-17T11:52:19.142Z,4.03
2023-02-17T11:55:25.870Z,3.20
2023-02-17T11:58:18.627Z,3.33
2023-02-17T12:00:57.016Z,2.70
2023-02-17T12:03:49.312Z,1.45
2023-02-17T12:06:50.021Z,2.60
2023-02-17T12:09:34.984Z,1.92
2023-02-17T12:12:20.927Z,2.13
2023-02-17T12:14:53.072Z,1.52
2023-02-17T12:17:40.884Z,2.60
2023-02-17T12:20:32.429Z,2.50
2023-02-17T12:23:23.566Z,4.80
2023-02-17T12:26:06.958Z,0.90
2023-02-17T12:28:46.296Z,2.35
2023-02-17T12:31:42.145Z,2.30
2023-02-17T12:34:41.318Z,2.75
2023-02-17T12:37:50.525Z,3.80
2023-02-17T12:40:39.466Z,0.55
2023-02-17T12:43:28.287Z,3.08
2023-02-17T12:46:13.788Z,3.00
2023-02-17T12:48:53.382Z,1.63
2023-02-17T12:51:41.306Z,5.50
2023-02-17T12:54:24.909Z,1.92
2023-02-17T12:57:05.252Z,3.67
2023-02-17T12:59:37.144Z,2.35
2023-02-17T13:02:13.356Z,4.38
2023-02-17T13:04:51.758Z,2.17
2023-02-17T13:07:42.260Z,2.58
2023-02-17T13:10:27.049Z,1.20
2023-02-17T13:13:00.861Z,1.55
2023-02-17T13:15:35.482Z,4.68
2023-02-17T13:18:13.424Z,2.35
2023-02-17T13:20:50.927Z,1.83
2023-02-17T13:23:29.374Z,2.10
2023-02-17T13:26:35.714Z,3.88
2023-02-17T13:29:38.816Z,12.77
2023-02-17T13:32:22.004Z,4.22
2023-02-17T13:35:12.717Z,2.97
2023-02-17T13:37:45.730Z,3.70
2023-02-17T13:40:17.080Z,2.83
2023-02-17T13:42:49.111Z,4.20
2023-02-17T13:45:44.784Z,8.18
2023-02-17T13:48:31.189Z,3.33
2023-02-17T13:51:06.189Z,1.55
2023-02-17T13:53:49.667Z,1.65
2023-02-17T13:56:28.388Z,7.05
2023-02-17T13:59:06.574Z,1.15
2023-02-17T14:01:44.648Z,2.20
2023-02-17T14:04:22.323Z,2.47
2023-02-17T14:06:52.386Z,2.03
2023-02-17T14:09:28.683Z,1.60
2023-02-17T14:11:57.480Z,2.28
2023-02-17T14:14:31.273Z,2.70
2023-02-17T14:17:07.009Z,2.30
2023-02-17T14:19:48.440Z,2.78
2023-02-17T14:22:35.691Z,2.20
2023-02-17T14:25:28.758Z,1.90
2023-02-17T14:27:56.411Z,4.38
2023-02-17T14:30:51.364Z,5.18
2023-02-17T14:33:32.025Z,2.13
2023-02-17T14:36:15.553Z,1.23
2023-02-17T14:38:43.141Z,2.10
2023-02-17T14:41:10.549Z,1.10
2023-02-17T14:43:40.374Z,1.13
2023-02-17T14:46:10.866Z,3.13
2023-02-17T14:48:41.935Z,1.33
2023-02-17T14:51:17.688Z,3.28
2023-02-17T14:53:54.563Z,1.27
2023-02-17T14:56:34.549Z,3.15
2023-02-17T14:59:05.907Z,2.17
2023-02-17T15:01:39.071Z,1.52
2023-02-17T15:04:08.249Z,1.60
2023-02-17T15:06:54.052Z,2.47
2023-02-17T15:09:36.390Z,3.85
2023-02-17T15:12:05.876Z,2.53
2023-02-17T15:14:35.507Z,3.25
2023-02-17T15:17:07.629Z,2.25
2023-02-17T15:19:34.919Z,4.50
2023-02-17T15:22:18.034Z,2.42
2023-02-17T15:24:48.528Z,3.00
2023-02-17T15:27:19.621Z,1.10
2023-02-17T15:29:48.206Z,5.40
2023-02-17T15:32:20.359Z,6.28
2023-02-17T15:34:49.824Z,2.22
2023-02-17T15:37:20.019Z,3.08
2023-02-17T15:39:47.090Z,9.25
2023-02-17T15:42:28.118Z,2.95
2023-02-17T15:44:56.272Z,2.75
2023-02-17T15:50:23.274Z,8.00
2023-02-17T15:53:04.125Z,8.55
2023-02-17T15:55:35.896Z,5.00
2023-02-17T15:58:06.325Z,4.63
2023-02-17T16:00:35.542Z,5.63
2023-02-17T16:03:04.562Z,3.17
2023-02-17T16:05:33.678Z,3.92
2023-02-17T16:08:00.783Z,4.18
2023-02-17T16:10:28.844Z,5.20
2023-02-17T16:13:00.536Z,3.70
2023-02-17T16:17:57.748Z,6.50
2023-02-17T16:20:28.289Z,4.15
2023-02-17T16:22:56.157Z,6.40
2023-02-17T16:25:23.880Z,3.72
2023-02-17T16:27:52.857Z,3.55
2023-02-17T16:30:34.829Z,4.13
2023-02-17T16:33:03.825Z,4.30
2023-02-17T16:35:32.492Z,7.63
2023-02-17T16:38:15.489Z,2.80
2023-02-17T16:40:47.563Z,4.60
2023-02-17T16:43:27.818Z,3.40
2023-02-17T16:45:58.121Z,12.88
2023-02-17T16:48:28.573Z,4.00
2023-02-17T16:50:58.450Z,4.57
2023-02-17T16:53:26.255Z,3.45
2023-02-17T16:55:55.379Z,6.10
2023-02-17T16:58:24.637Z,8.02
2023-02-17T17:00:55.063Z,5.25
2023-02-17T17:03:22.593Z,2.08
2023-02-17T17:05:53.542Z,2.92
2023-02-17T17:08:22.177Z,9.13
2023-02-17T17:10:49.751Z,4.65
2023-02-17T17:13:17.139Z,3.60
2023-02-17T17:15:47.189Z,4.25
2023-02-17T17:18:21.285Z,8.43
2023-02-17T17:20:49.466Z,4.25
2023-02-17T17:23:16.831Z,5.35
2023-02-17T17:25:46.670Z,4.03
2023-02-17T17:28:17.794Z,5.13
2023-02-17T17:30:46.423Z,4.85
2023-02-17T17:33:13.718Z,4.30
2023-02-17T17:35:41.124Z,7.43
2023-02-17T17:38:09.864Z,5.65
2023-02-17T17:40:53.131Z,4.15
2023-02-17T17:43:22.274Z,10.75
2023-02-17T17:45:51.026Z,6.85
2023-02-17T17:48:21.483Z,4.88
2023-02-17T17:50:49.927Z,5.80
2023-02-17T17:53:17.322Z,8.73
2023-02-17T17:55:44.518Z,9.02
2023-02-17T17:58:11.623Z,9.52
2023-02-17T18:00:38.746Z,5.78
2023-02-17T18:03:05.838Z,9.15
2023-02-17T18:05:32.946Z,5.47
2023-02-17T18:08:01.129Z,4.95
2023-02-17T18:10:28.382Z,6.85
2023-02-17T18:12:55.746Z,5.43
2023-02-17T18:15:22.776Z,7.72
2023-02-17T18:17:51.330Z,5.38
2023-02-17T18:20:19.127Z,8.48
2023-02-17T18:22:46.955Z,6.68
2023-02-17T18:25:15.661Z,6.30
2023-02-17T18:27:46.761Z,8.45
2023-02-17T18:30:18.002Z,6.07
2023-02-17T18:32:46.131Z,6.28
2023-02-17T18:35:15.226Z,10.25
2023-02-17T18:37:42.821Z,10.90
2023-02-17T18:40:12.687Z,9.75
2023-02-17T18:42:42.179Z,6.45
2023-02-17T18:45:09.835Z,8.45
2023-02-17T18:47:38.834Z,9.88
2023-02-17T18:50:08.854Z,7.22
2023-02-17T18:52:40.808Z,6.63
2023-02-17T18:55:09.982Z,12.70
2023-02-17T18:57:40.532Z,5.80
2023-02-17T19:00:13.103Z,7.28
2023-02-17T19:02:41.132Z,7.25
2023-02-17T19:05:09.966Z,7.47
2023-02-17T19:07:37.424Z,7.43
2023-02-17T19:10:06.165Z,8.57
2023-02-17T19:12:34.433Z,14.93
2023-02-17T19:15:02.084Z,8.77
2023-02-17T19:17:29.202Z,11.73
2023-02-17T19:19:56.944Z,7.88
2023-02-17T19:22:25.158Z,9.45
2023-02-17T19:24:53.944Z,8.93
2023-02-17T19:27:21.481Z,8.27
2023-02-17T19:29:48.495Z,6.60
2023-02-17T19:32:15.664Z,11.15
2023-02-17T19:34:45.746Z,11.05
2023-02-17T19:37:13.110Z,9.20
2023-02-17T19:39:40.101Z,7.57
2023-02-17T19:42:08.198Z,15.57
2023-02-17T19:44:35.416Z,9.85
2023-02-17T19:47:04.032Z,12.60
2023-02-17T19:49:31.260Z,13.23
2023-02-17T19:51:58.514Z,15.15
2023-02-17T19:54:25.972Z,10.35
2023-02-17T19:56:53.332Z,14.85
2023-02-17T19:59:21.873Z,15.25
2023-02-17T20:01:51.515Z,11.73
2023-02-17T20:04:21.360Z,10.93
2023-02-17T20:06:48.779Z,12.25
2023-02-17T20:09:21.847Z,13.02
2023-02-17T20:11:53.139Z,10.38
2023-02-17T20:14:21.754Z,16.75
2023-02-17T20:16:49.446Z,15.27
2023-02-17T20:19:17.949Z,15.25
2023-02-17T20:21:46.202Z,12.63
2023-02-17T20:24:17.633Z,16.70
2023-02-17T20:26:47.226Z,13.60
2023-02-17T20:29:16.263Z,14.77
2023-02-17T20:31:44.136Z,15.52
2023-02-17T20:34:27.438Z,20.90
2023-02-17T20:36:55.784Z,14.80
2023-02-17T20:39:25.860Z,17.92
2023-02-17T20:41:54.721Z,13.35
2023-02-17T20:44:27.982Z,16.98
2023-02-17T20:46:56.293Z,15.40
2023-02-17T20:49:23.976Z,25.65
2023-02-17T20:51:52.035Z,13.35
2023-02-17T20:54:20.011Z,20.30
2023-02-17T20:56:58.878Z,18.60
2023-02-17T20:59:30.697Z,12.95
2023-02-17T21:01:58.323Z,13.80
2023-02-17T21:04:29.373Z,17.77
2023-02-17T21:07:04.141Z,14.50
2023-02-17T21:09:31.645Z,12.38
2023-02-17T21:12:02.072Z,20.08
2023-02-17T21:14:29.426Z,16.92
2023-02-17T21:16:56.709Z,17.90
2023-02-17T21:19:29.831Z,16.58
2023-02-17T21:21:57.546Z,15.40
2023-02-17T21:24:25.311Z,15.80
2023-02-17T21:26:52.671Z,12.50
2023-02-17T21:29:20.044Z,15.00
2023-02-17T21:31:55.320Z,13.07
2023-02-17T21:34:27.233Z,14.93
2023-02-17T21:36:55.132Z,17.27
2023-02-17T21:39:22.507Z,12.65
2023-02-17T21:41:50.339Z,18.50
2023-02-17T21:44:36.111Z,16.70
2023-02-17T21:47:06.478Z,14.63
2023-02-17T21:49:34.022Z,16.02
2023-02-17T21:52:04.369Z,14.10
2023-02-17T21:54:31.900Z,19.92
2023-02-17T21:57:02.780Z,19.10
2023-02-17T21:59:34.999Z,17.10
2023-02-17T22:02:05.468Z,18.77
2023-02-17T22:04:32.612Z,21.38
2023-02-17T22:06:59.776Z,21.90
2023-02-17T22:09:27.497Z,14.85
2023-02-17T22:11:57.577Z,16.98
2023-02-17T22:14:26.389Z,26.33
2023-02-17T22:16:53.809Z,17.00
2023-02-17T22:19:33.293Z,20.35
2023-02-17T22:22:07.820Z,18.92
2023-02-17T22:24:39.983Z,18.75
2023-02-17T22:27:08.569Z,22.45
2023-02-17T22:29:36.002Z,15.60
2023-02-17T22:32:03.584Z,35.35
2023-02-17T22:34:31.272Z,20.02
2023-02-17T22:36:58.729Z,22.13
2023-02-17T22:39:25.993Z,18.80
2023-02-17T22:41:56.036Z,21.70
2023-02-17T22:44:23.602Z,19.50
2023-02-17T22:46:50.906Z,26.13
2023-02-17T22:49:18.297Z,20.00
2023-02-17T22:51:45.471Z,16.88
2023-02-17T22:54:12.679Z,18.30
2023-02-17T22:56:39.940Z,23.63
2023-02-17T22:59:11.554Z,23.30
2023-02-17T23:01:39.186Z,15.48
2023-02-17T23:04:08.115Z,19.83
2023-02-17T23:06:38.043Z,20.75
2023-02-17T23:09:08.455Z,14.80
2023-02-17T23:11:51.055Z,17.75
2023-02-17T23:14:23.303Z,19.70
2023-02-17T23:16:51.373Z,19.83
2023-02-17T23:19:20.644Z,18.00
2023-02-17T23:21:51.331Z,19.58
2023-02-17T23:24:19.615Z,21.17
2023-02-17T23:26:47.676Z,17.10
2023-02-17T23:29:15.711Z,23.30
2023-02-17T23:31:43.000Z,15.90
2023-02-17T23:34:13.164Z,19.52
2023-02-17T23:36:44.460Z,19.58
2023-02-17T23:39:11.885Z,17.67
2023-02-17T23:41:44.042Z,15.35
2023-02-17T23:44:13.564Z,15.38
2023-02-17T23:46:41.887Z,24.00
2023-02-17T23:49:12.469Z,20.45
2023-02-17T23:51:40.039Z,16.63
2023-02-17T23:54:07.252Z,17.35
2023-02-17T23:56:37.473Z,24.77
2023-02-17T23:59:05.172Z,18.10
